createdAt,value
2018-04-10T00:05:50.643Z,0
2018-04-10T00:16:05.962Z,0
2018-04-10T00:26:20.887Z,0
2018-04-10T00:36:35.135Z,0
2018-04-10T00:46:49.685Z,0
2018-04-10T00:57:05.348Z,0
2018-04-10T01:07:19.182Z,0
2018-04-10T01:17:33.205Z,0
2018-04-10T01:27:47.945Z,0
2018-04-10T01:38:03.069Z,0
2018-04-10T01:48:18.548Z,0
2018-04-10T01:58:33.651Z,0
2018-04-10T02:08:48.568Z,0
2018-04-10T02:19:03.748Z,0
2018-04-10T02:29:18.040Z,0
2018-04-10T02:39:32.661Z,0
2018-04-10T02:49:47.559Z,0
2018-04-10T03:00:01.556Z,0
2018-04-10T03:10:17.112Z,0
2018-04-10T03:20:31.271Z,0
2018-04-10T03:30:45.930Z,0
2018-04-10T03:41:01.504Z,0
2018-04-10T03:51:16.495Z,0
2018-04-10T04:01:31.156Z,0
2018-04-10T04:11:46.245Z,4
2018-04-10T04:21:59.560Z,12
2018-04-10T04:32:15.215Z,60
2018-04-10T04:42:30.700Z,204
2018-04-10T04:52:45.474Z,556
2018-04-10T05:03:00.044Z,1516
2018-04-10T05:13:14.567Z,2576
2018-04-10T05:23:29.098Z,4420
2018-04-10T05:33:44.319Z,5260
2018-04-10T05:43:59.026Z,5644
2018-04-10T05:54:13.863Z,6508
2018-04-10T06:04:29.185Z,7652
2018-04-10T06:14:44.435Z,9356
2018-04-10T06:24:59.531Z,10736
2018-04-10T06:35:15.134Z,12240
2018-04-10T06:45:29.925Z,13060
2018-04-10T06:55:44.270Z,16032
2018-04-10T07:05:59.409Z,16444
2018-04-10T07:16:13.233Z,19552
2018-04-10T07:26:28.136Z,22976
2018-04-10T07:36:43.812Z,30848
2018-04-10T07:46:58.268Z,33568
2018-04-10T07:57:13.413Z,35776
2018-04-10T08:07:27.656Z,30944
2018-04-10T08:17:41.640Z,34208
2018-04-10T08:27:56.550Z,47456
2018-04-10T08:38:11.074Z,26912
2018-04-10T08:48:26.766Z,26752
2018-04-10T08:58:40.491Z,56544
2018-04-10T09:08:56.112Z,42528
2018-04-10T09:19:11.435Z,55232
2018-04-10T09:29:26.156Z,53664
2018-04-10T09:39:41.658Z,52736
2018-04-10T09:49:55.758Z,57152
2018-04-10T10:00:10.918Z,60640
2018-04-10T10:10:26.473Z,53312
2018-04-10T10:20:40.872Z,51072
2018-04-10T10:30:56.445Z,38624
2018-04-10T10:41:10.381Z,33312
2018-04-10T10:51:25.732Z,58880
2018-04-10T11:01:40.398Z,67904
2018-04-10T11:11:54.900Z,71168
2018-04-10T11:22:09.220Z,78912
2018-04-10T11:32:24.506Z,67424
2018-04-10T11:42:39.937Z,67200
2018-04-10T11:52:54.031Z,73600
2018-04-10T12:03:09.450Z,72992
2018-04-10T12:13:24.029Z,73568
2018-04-10T12:23:39.798Z,70592
2018-04-10T12:33:54.320Z,70688
2018-04-10T12:44:08.257Z,75040
2018-04-10T12:54:24.073Z,77504
2018-04-10T13:04:39.580Z,68160
2018-04-10T13:14:54.226Z,68768
2018-04-10T13:25:09.236Z,67296
2018-04-10T13:35:24.056Z,64160
2018-04-10T13:45:39.508Z,60992
2018-04-10T13:55:54.453Z,64320
2018-04-10T14:06:09.516Z,57024
2018-04-10T14:16:24.608Z,57568
2018-04-10T14:26:39.294Z,45440
2018-04-10T14:36:53.884Z,51424
2018-04-10T14:47:09.610Z,47392
2018-04-10T14:57:25.197Z,42304
2018-04-10T15:07:40.542Z,28800
2018-04-10T15:17:54.814Z,36928
2018-04-10T15:28:09.736Z,29536
2018-04-10T15:38:25.151Z,26688
2018-04-10T15:48:40.532Z,22592
2018-04-10T15:58:55.947Z,15844
2018-04-10T16:09:10.508Z,19296
2018-04-10T16:19:24.544Z,16668
2018-04-10T16:29:38.388Z,14744
2018-04-10T16:39:53.219Z,13720
2018-04-10T16:50:08.692Z,11928
2018-04-10T17:00:23.169Z,11916
2018-04-10T17:10:38.319Z,8428
2018-04-10T17:20:53.808Z,6580
2018-04-10T17:31:09.442Z,5104
2018-04-10T17:41:24.618Z,3508
2018-04-10T17:51:39.036Z,2004
2018-04-10T18:01:53.594Z,1116
2018-04-10T18:12:08.327Z,600
2018-04-10T18:22:23.381Z,236
2018-04-10T18:32:37.750Z,64
2018-04-10T18:42:51.861Z,12
2018-04-10T18:53:05.650Z,4
2018-04-10T19:03:20.250Z,0
2018-04-10T19:13:35.215Z,0
2018-04-10T19:23:50.411Z,0
2018-04-10T19:34:04.376Z,0
2018-04-10T19:44:19.311Z,0
2018-04-10T19:54:34.637Z,0
2018-04-10T20:04:48.324Z,0
2018-04-10T20:15:03.440Z,0
2018-04-10T20:25:18.841Z,0
2018-04-10T20:35:32.828Z,0
2018-04-10T20:45:47.748Z,0
2018-04-10T20:56:02.882Z,0
2018-04-10T21:06:18.033Z,0
2018-04-10T21:16:32.672Z,0
2018-04-10T21:26:47.952Z,0
2018-04-10T21:37:03.489Z,0
2018-04-10T21:47:17.453Z,0
2018-04-10T21:57:32.458Z,0
2018-04-10T22:07:47.767Z,0
2018-04-10T22:18:02.726Z,0
2018-04-10T22:28:17.654Z,0
2018-04-10T22:38:32.633Z,0
2018-04-10T22:48:47.478Z,0
2018-04-10T22:59:02.816Z,0
2018-04-10T23:09:17.795Z,0
2018-04-10T23:19:33.485Z,0
2018-04-10T23:29:48.093Z,0
2018-04-10T23:40:01.740Z,0
2018-04-10T23:50:16.334Z,0
